< < Back
Terminal Aerodrome Forecast


Current Version              Previous Versions:   1  2  3  4  5  6  7  8  9  

Terminal Aerodrome Forecast

479
FTUS42 KFFC 160500
TAFPDK
TAF
KPDK 160533Z 1606/1706 16003KT 5SM BR VCSH BKN015
     FM160900 23003KT 4SM BR BKN007
     FM161300 31005KT 6SM BR BKN015
     FM161500 33008KT P6SM SCT025 BKN040
     FM161800 33010KT P6SM SCT050 BKN100
     FM170200 35005KT P6SM SCT120 BKN250=

Latest METAR

385
SAUS70 KWBC 161100
MTRPDK
METAR KPDK 161053Z 00000KT 5SM BR FEW007 OVC019 22/21 A3011 RMK AO2
SLP181 T02170206


USA.gov is the U.S. government's official web portal to all federal, state and local government web resources and services.